sensor_id;sensor_type;location;lat;lon;timestamp;temperature;humidity
22838;DHT22;11585;51.450;-0.240;2024-03-23T13:34:09;10.80;99.90
22838;DHT22;11585;51.450;-0.240;2024-03-23T13:36:35;10.80;99.90
22838;DHT22;11585;51.450;-0.240;2024-03-23T13:39:02;10.80;99.90
22838;DHT22;11585;51.450;-0.240;2024-03-23T13:41:39;10.80;99.90
22838;DHT22;11585;51.450;-0.240;2024-03-23T13:44:24;10.80;99.90
22838;DHT22;11585;51.450;-0.240;2024-03-23T13:46:51;10.70;99.90
22838;DHT22;11585;51.450;-0.240;2024-03-23T13:49:30;10.70;99.90
22838;DHT22;11585;51.450;-0.240;2024-03-23T13:51:59;10.70;99.90
22838;DHT22;11585;51.450;-0.240;2024-03-23T13:54:27;10.60;99.90
22838;DHT22;11585;51.450;-0.240;2024-03-23T13:56:55;10.60;99.90
22838;DHT22;11585;51.450;-0.240;2024-03-23T13:59:21;10.50;99.90
22838;DHT22;11585;51.450;-0.240;2024-03-23T14:01:48;10.50;99.90
22838;DHT22;11585;51.450;-0.240;2024-03-23T14:04:34;10.50;99.90
22838;DHT22;11585;51.450;-0.240;2024-03-23T14:06:59;10.40;99.90
22838;DHT22;11585;51.450;-0.240;2024-03-23T14:09:25;10.40;99.90
22838;DHT22;11585;51.450;-0.240;2024-03-23T14:11:51;10.30;99.90
22838;DHT22;11585;51.450;-0.240;2024-03-23T14:14:17;10.30;99.90
22838;DHT22;11585;51.450;-0.240;2024-03-23T14:16:43;10.20;99.90
22838;DHT22;11585;51.450;-0.240;2024-03-23T14:19:09;10.20;99.90
22838;DHT22;11585;51.450;-0.240;2024-03-23T14:21:35;10.20;99.90
22838;DHT22;11585;51.450;-0.240;2024-03-23T14:24:01;10.20;99.90
22838;DHT22;11585;51.450;-0.240;2024-03-23T14:26:27;10.10;99.90
22838;DHT22;11585;51.450;-0.240;2024-03-23T14:28:53;10.10;99.90
22838;DHT22;11585;51.450;-0.240;2024-03-23T14:31:18;10.10;99.90
22838;DHT22;11585;51.450;-0.240;2024-03-23T14:33:45;10.10;99.90
22838;DHT22;11585;51.450;-0.240;2024-03-23T14:36:15;10.10;99.90
22838;DHT22;11585;51.450;-0.240;2024-03-23T14:38:46;10.10;99.90
22838;DHT22;11585;51.450;-0.240;2024-03-23T14:41:12;10.10;99.90
22838;DHT22;11585;51.450;-0.240;2024-03-23T14:43:38;10.10;99.90
22838;DHT22;11585;51.450;-0.240;2024-03-23T14:46:14;10.10;99.90
22838;DHT22;11585;51.450;-0.240;2024-03-23T14:48:41;10.10;99.90
22838;DHT22;11585;51.450;-0.240;2024-03-23T14:51:08;10.10;99.90
22838;DHT22;11585;51.450;-0.240;2024-03-23T14:53:37;10.10;99.90
22838;DHT22;11585;51.450;-0.240;2024-03-23T22:19:25;9.00;99.90
22838;DHT22;11585;51.450;-0.240;2024-03-23T22:22:08;9.00;99.90
22838;DHT22;11585;51.450;-0.240;2024-03-23T22:24:34;8.90;99.90
22838;DHT22;11585;51.450;-0.240;2024-03-23T22:27:21;9.00;99.90
22838;DHT22;11585;51.450;-0.240;2024-03-23T22:29:46;9.00;99.90
22838;DHT22;11585;51.450;-0.240;2024-03-23T22:32:12;8.90;99.90
22838;DHT22;11585;51.450;-0.240;2024-03-23T22:34:42;8.60;99.90
22838;DHT22;11585;51.450;-0.240;2024-03-23T22:37:10;8.90;99.90
22838;DHT22;11585;51.450;-0.240;2024-03-23T22:39:36;8.90;99.90
22838;DHT22;11585;51.450;-0.240;2024-03-23T22:42:02;8.90;99.90
22838;DHT22;11585;51.450;-0.240;2024-03-23T22:44:27;8.90;99.90
22838;DHT22;11585;51.450;-0.240;2024-03-23T22:53:38;8.90;99.90
22838;DHT22;11585;51.450;-0.240;2024-03-23T22:56:23;8.90;99.90
22838;DHT22;11585;51.450;-0.240;2024-03-23T22:58:49;8.90;99.90
22838;DHT22;11585;51.450;-0.240;2024-03-23T23:01:15;8.90;99.90
22838;DHT22;11585;51.450;-0.240;2024-03-23T23:03:40;8.90;99.90
22838;DHT22;11585;51.450;-0.240;2024-03-23T23:06:07;8.90;99.90
22838;DHT22;11585;51.450;-0.240;2024-03-23T23:08:34;8.90;99.90
22838;DHT22;11585;51.450;-0.240;2024-03-23T23:11:00;8.80;99.90
22838;DHT22;11585;51.450;-0.240;2024-03-23T23:13:25;8.90;99.90
22838;DHT22;11585;51.450;-0.240;2024-03-23T23:18:57;8.90;99.90
22838;DHT22;11585;51.450;-0.240;2024-03-23T23:21:22;8.80;99.90
22838;DHT22;11585;51.450;-0.240;2024-03-23T23:23:48;8.90;99.90
22838;DHT22;11585;51.450;-0.240;2024-03-23T23:26:17;8.80;99.90
22838;DHT22;11585;51.450;-0.240;2024-03-23T23:28:43;8.80;99.90
22838;DHT22;11585;51.450;-0.240;2024-03-23T23:31:08;8.80;99.90
22838;DHT22;11585;51.450;-0.240;2024-03-23T23:33:34;8.80;99.90
22838;DHT22;11585;51.450;-0.240;2024-03-23T23:39:05;8.80;99.90
22838;DHT22;11585;51.450;-0.240;2024-03-23T23:41:31;8.80;99.90
22838;DHT22;11585;51.450;-0.240;2024-03-23T23:43:57;8.80;99.90
22838;DHT22;11585;51.450;-0.240;2024-03-23T23:46:25;8.80;99.90
22838;DHT22;11585;51.450;-0.240;2024-03-23T23:48:51;8.80;99.90
22838;DHT22;11585;51.450;-0.240;2024-03-23T23:51:17;8.80;99.90
